Roscommon, Ireland
Current Conditions -  °F | °C
As of 12:00 PM on Thursday 27 Nov 2014 (Local Time) from EIKN Reporting Station
Broken Clouds Broken Clouds  
Wind Chill: 35°   Ceiling: 700
Heat Index: 43°   Visibility: 6mi
Dew Point: 41°   Wind: 15mph
Humidity: 93%   Direction: 130°SE
Pressure: 29.44"   Gusts: NA
Location:  53.64°N, 8.2°W
Report Text: EIKN 271200Z 13013KT 100V170 9999 FEW004 BKN007 06/05 Q0997 BECMG BKN015
Loading
Personal Weather Stations






























Interactive Weather Map New forecast layout! Learn more

10-Day Weather Forecast

Advertisements
Track Severe Weather on mobile